Tiempo atmosférico en la estación meteorológica de Garganta De La Olla, Cáceres (690 m.)



Fecha
DESCASC
Temp. máxima en grados centígrados (hora)
DESCASC
Temp. mínima en grados centígrados (hora)
DESCASC
Temp. media en grados centígrados
DESCASC
Racha de viento máxima en m/sg (hora)
DESCASC
Velocidad máxima media en intervalos de 10 minutos(hora)
DESCASC
Precipitaciones diarias en mm
DESCASC
Precipitaciones de 00:00 a 06:00 en mm
DESCASC
Precipitaciones de 06:00 a 12:00 en mm
DESCASC
Precipitaciones de 12:00 a 18:00 en mm
DESCASC
Precipitaciones de 18:00 a 24:00 en mm
DESCASC
23-05-2018 24.5 (14:50) 13.8 (06:30) 19.2 8.06 (15:40) 3.33 (00:10) 0 0 0 0 0
22-05-2018 23.3 (17:20) 11.9 (07:40) 17.6 6.11 (23:10) 4.17 (23:10) 0 0 0 0 0
21-05-2018 21.3 (15:40) 11 (07:20) 16.1 6.11 (20:10) 3.61 (20:10) 0 0 0 0 0
20-05-2018 20.1 (19:00) 11.8 (00:00) 16 9.72 (14:40) 6.11 (14:40) 0.8 0 0 0.8 0
19-05-2018 20.8 (13:20) 11.2 (00:00) 16 10.56 (15:10) 5.83 (15:30) 0.2 0 0 0.2 0
18-05-2018 21 (16:10) 10.4 (00:00) 15.7 15.28 (17:20) 7.22 (17:20) 16.4 3.6 0 12.8 0
17-05-2018 24.3 (16:10) 12.2 (00:00) 18.2 14.17 (20:10) 8.61 (20:10) 1.4 0 0 0 1.4
16-05-2018 24.1 (17:20) 10 (00:00) 17.1 6.39 (15:10) 3.06 (15:10) 0 0 0 0 0
15-05-2018 21.8 (18:00) 7.8 (00:00) 14.8 7.78 (22:10) 3.61 (22:30) 0 0 0 0 0
14-05-2018 19.8 (18:20) 9.6 (00:00) 14.7 12.22 (00:10) 7.78 (06:30) 0 0 0 0 0
13-05-2018 17.6 (16:00) 6.3 (00:00) 12 15.56 (03:20) 10.56 (03:40) 0 0 0 0 0
12-05-2018 17.4 (13:00) 8.8 (00:00) 13.1 16.11 (16:30) 9.72 (21:20) 0 0 0 0 0
11-05-2018 22.7 (17:00) 13.6 (06:50) 18.2 8.06 (23:40) 4.72 (23:40) 0 0 0 0 0
10-05-2018 23 (16:10) 9.8 (00:00) 16.4 7.78 (00:40) 3.61 (00:10) 0 0 0 0 0
09-05-2018 23.8 (14:20) 14 (00:00) 18.9 9.72 (23:00) 6.39 (23:00) 0 0 0 0 0
08-05-2018 24.8 (15:40) 13.9 (00:00) 19.3 12.22 (00:20) 7.22 (22:20) 2.4 2.2 0 0.2 0
07-05-2018 22.9 (15:10) 13.9 (00:00) 18.4 11.11 (16:20) 6.39 (16:20) 0 0 0 0 0
06-05-2018 22.2 (18:20) 12.1 (00:00) 17.2 7.78 (13:50) 3.89 (13:00) 0 0 0 0 0
05-05-2018 23.1 (17:20) 9.8 (00:00) 16.5 7.5 (15:40) 4.72 (23:10) 0 0 0 0 0
04-05-2018 18.2 (18:10) 5.5 (00:00) 11.9 6.39 (13:50) 3.61 (00:30) 0 0 0 0 0
03-05-2018 18.6 (17:20) 9.3 (00:00) 14 12.78 (20:40) 7.5 (18:50) 0 0 0 0 0
02-05-2018 17.6 (16:30) 6 (00:00) 11.8 10.83 (19:10) 6.94 (23:59) 0 0 0 0 0
01-05-2018 14.7 (17:30) 4.2 (05:30) 9.4 6.67 (17:40) 4.17 (00:40) 0 0 0 0 0
30-04-2018 12.5 (16:00) 2.6 (00:00) 7.5 10.28 (21:50) 5.83 (21:50) 0.4 0 0 0 0.4
29-04-2018 11.7 (14:20) 4.4 (00:00) 8 13.06 (11:00) 5.83 (18:10) 7.8 1 1.6 5 0.2
28-04-2018 14.2 (15:40) 4.5 (00:00) 9.3 10 (23:10) 6.11 (23:59) 0 0 0 0 0
27-04-2018 21.9 (16:00) 9.9 (00:00) 15.9 9.17 (14:30) 5 (22:50) 0 0 0 0 0
26-04-2018 25.5 (17:30) 14 (00:00) 19.8 8.33 (18:20) 4.72 (16:30) 0 0 0 0 0
25-04-2018 26.3 (18:50) 13.9 (00:00) 20.1 11.94 (19:40) 6.94 (21:40) 0 0 0 0 0

Gráficas

Temp. máximas Temp. mínimas Temp. medias Precipitaciones Rachas de viento máximas Velocidades máximas media en intervalos de 10 minutos

Datos horarios

Fecha y hora oficial Temperatura (ºC) Velocidad del viento (km/h) Dirección del viento Racha (km/h) Dirección de racha Precipitación (mm) Presión (hPa) Tendencia (hPa) Humedad (%)
2018-05-24 23:00:00 14.1 10 Noroeste 16 Noroeste 0 -- -- 82
2018-05-24 22:00:00 14.5 6 Norte 26 Noroeste 0 -- -- 84
2018-05-24 21:00:00 15.5 14 Noroeste 22 Noroeste 0.2 -- -- 91
2018-05-24 20:00:00 16.6 5 Sur 13 Sudeste 1.8 -- -- 90
2018-05-24 19:00:00 18.4 3 Este 16 Noroeste 0.2 -- -- 73
2018-05-24 18:00:00 22.1 10 Sudeste 27 Sudeste 0 -- -- 53
2018-05-24 17:00:00 20.9 14 Sur 31 Sudeste 0 -- -- 54
2018-05-24 16:00:00 20.2 3 Noroeste 14 Sudeste 0 -- -- 67
2018-05-24 15:00:00 20.2 8 Sudeste 20 Sudeste 0.4 -- -- 64
2018-05-24 14:00:00 19.7 4 Norte 15 Noroeste 0 -- -- 75
2018-05-24 13:00:00 18.9 2 Nordeste 16 Sur 0.2 -- -- 74
2018-05-24 12:00:00 18.5 8 Sur 25 Sudeste 0.2 -- -- 71
2018-05-24 11:00:00 16.3 4 Norte 16 Sudoeste 0.2 -- -- 87
2018-05-24 10:00:00 16.8 4 Noroeste 13 Noroeste 0 -- -- 78
2018-05-24 09:00:00 16.6 4 Sudoeste 15 Sudoeste 0 -- -- 79
2018-05-24 08:00:00 16.3 4 Sudoeste 11 Sur 0 -- -- 69
2018-05-24 07:00:00 15.8 4 Sudoeste 9 Noroeste 0 -- -- 71
2018-05-24 06:00:00 16.1 0 Calma 12 Norte 0 -- -- 69
2018-05-24 05:00:00 17.1 3 Noroeste 10 Oeste 0 -- -- 62
2018-05-24 04:00:00 17.2 9 Noroeste 16 Noroeste 0 -- -- 60
2018-05-24 03:00:00 16.6 8 Noroeste 14 Noroeste 0 -- -- 65
2018-05-24 02:00:00 16.7 10 Noroeste 20 Noroeste 0 -- -- 66
2018-05-24 01:00:00 16.7 8 Noroeste 14 Noroeste 0 -- -- 67
2018-05-24 00:00:00 16.8 9 Noroeste 13 Noroeste 0 -- -- 67
2018-05-23 23:00:00 17.5 8 Noroeste 16 Noroeste 0 -- -- 64
2018-05-23 22:00:00 17.8 8 Noroeste 12 Noroeste 0 -- -- 61
2018-05-23 21:00:00 19.5 6 Oeste 9 Sudoeste 0 -- -- 58
2018-05-23 20:00:00 22.3 8 Sur 15 Sudoeste 0 -- -- 52
2018-05-23 19:00:00 23.2 5 Sur 17 Sur 0 -- -- 51
2018-05-23 18:00:00 23.6 7 Sur 17 Sur 0 -- -- 49
2018-05-23 17:00:00 23.4 11 Sudoeste 17 Sudoeste 0 -- -- 50
2018-05-23 16:00:00 24.4 8 Sur 29 Sudeste 0 -- -- 47
2018-05-23 15:00:00 24.5 11 Sur 19 Sur 0 -- -- 46
2018-05-23 14:00:00 23.1 7 Sur 17 Sur 0 -- -- 52
2018-05-23 13:00:00 22.7 8 Sudeste 17 Sudeste 0 -- -- 56
2018-05-23 12:00:00 21.5 5 Sudeste 12 Sur 0 -- -- 57
2018-05-23 11:00:00 19.9 6 Sur 11 Sur 0 -- -- 64
2018-05-23 10:00:00 18.8 0 Calma 4 Oeste 0 -- -- 67
2018-05-23 09:00:00 17.1 0 Calma 12 Noroeste 0 -- -- 74
2018-05-23 08:00:00 14.7 3 Noroeste 13 Noroeste 0 -- -- 74
2018-05-23 07:00:00 14.1 7 Noroeste 12 Noroeste 0 -- -- 76
2018-05-23 06:00:00 14.4 6 Noroeste 16 Noroeste 0 -- -- 72
2018-05-23 05:00:00 15.1 2 Noroeste 13 Noroeste 0 -- -- 68
2018-05-23 04:00:00 15.1 5 Noroeste 13 Noroeste 0 -- -- 68
2018-05-23 03:00:00 14.9 8 Noroeste 12 Noroeste 0 -- -- 71
2018-05-23 02:00:00 15.2 6 Noroeste 12 Noroeste 0 -- -- 69
2018-05-23 01:00:00 15.6 8 Noroeste 16 Noroeste 0 -- -- 66
2018-05-23 00:00:00 16.2 10 Noroeste 22 Noroeste 0 -- -- 64
2018-05-22 23:00:00 16.4 12 Noroeste 18 Noroeste 0 -- -- 65
2018-05-22 22:00:00 16.9 11 Noroeste 16 Noroeste 0 -- -- 63
2018-05-22 21:00:00 18.7 9 Noroeste 13 Noroeste 0 -- -- 59
2018-05-22 20:00:00 21.8 4 Sudoeste 10 Sudoeste 0 -- -- 49
2018-05-22 19:00:00 22.9 3 Oeste 17 Sur 0 -- -- 49
2018-05-22 18:00:00 23.3 5 Sur 18 Sur 0 -- -- 46
2018-05-22 17:00:00 23.1 7 Sudeste 21 Sudeste 0 -- -- 47
2018-05-22 16:00:00 23.1 5 Sur 20 Sudeste 0 -- -- 45
2018-05-22 15:00:00 22.4 12 Sudeste 21 Sudeste 0 -- -- 47
2018-05-22 14:00:00 21.7 9 Sur 18 Sudeste 0 -- -- 50
2018-05-22 13:00:00 21.1 8 Sudeste 20 Sudeste 0 -- -- 54
2018-05-22 12:00:00 20.2 11 Sudeste 18 Sudeste 0 -- -- 63
2018-05-22 11:00:00 19.2 5 Sudeste 10 Sudeste 0 -- -- 61
2018-05-22 10:00:00 17.8 6 Sudeste 10 Sudeste 0 -- -- 68
2018-05-22 09:00:00 15.6 2 Nordeste 4 Este 0 -- -- 72
2018-05-22 08:00:00 12.4 3 Sur 10 Noroeste 0 -- -- 80
2018-05-22 07:00:00 12.1 6 Noroeste 14 Noroeste 0 -- -- 79
2018-05-22 06:00:00 13.1 9 Noroeste 14 Noroeste 0 -- -- 73
2018-05-22 05:00:00 13.2 4 Oeste 14 Noroeste 0 -- -- 72
2018-05-22 04:00:00 13.4 8 Noroeste 17 Norte 0 -- -- 71
2018-05-22 03:00:00 13.6 9 Noroeste 17 Noroeste 0 -- -- 67
2018-05-22 02:00:00 13.5 11 Noroeste 18 Noroeste 0 -- -- 66
2018-05-22 01:00:00 14.4 9 Noroeste 16 Noroeste 0 -- -- 74
2018-05-22 00:00:00 14.4 6 Noroeste 14 Noroeste 0 -- -- 76
2018-05-21 23:00:00 14.7 7 Noroeste 12 Noroeste 0 -- -- 72
2018-05-21 22:00:00 15.9 5 Noroeste 12 Noroeste 0 -- -- 65
2018-05-21 21:00:00 17.5 6 Noroeste 22 Noroeste 0 -- -- 66
2018-05-21 20:00:00 20.1 12 Norte 21 Norte 0 -- -- 54
2018-05-21 19:00:00 20.8 7 Noroeste 17 Noroeste 0 -- -- 57
2018-05-21 18:00:00 20.6 2 Nordeste 8 Norte 0 -- -- 55
2018-05-21 17:00:00 20.1 4 Norte 16 Sudeste 0 -- -- 57
2018-05-21 16:00:00 20.4 5 Nordeste 17 Sudoeste 0 -- -- 54
2018-05-21 15:00:00 20.4 4 Este 19 Sudeste 0 -- -- 54
2018-05-21 14:00:00 19.3 9 Sudeste 19 Sudeste 0 -- -- 58
2018-05-21 13:00:00 17.5 5 Sur 10 Sudeste 0 -- -- 67
2018-05-21 12:00:00 15.8 5 Sur 10 Sur 0 -- -- 79
2018-05-21 11:00:00 15.4 5 Sur 10 Sur 0 -- -- 78
2018-05-21 10:00:00 14.5 2 Nordeste 10 Sur 0 -- -- 76
2018-05-21 09:00:00 13.6 0 Calma 4 Sudoeste 0 -- -- 76
2018-05-21 08:00:00 11.5 4 Noroeste 14 Noroeste 0 -- -- 81
2018-05-21 07:00:00 11.3 3 Noroeste 18 Noroeste 0 -- -- 77
2018-05-21 06:00:00 11.7 5 Noroeste 14 Noroeste 0 -- -- 76
2018-05-21 05:00:00 11.6 8 Noroeste 14 Noroeste 0 -- -- 77
2018-05-21 04:00:00 12.2 9 Noroeste 14 Noroeste 0 -- -- 78
2018-05-21 03:00:00 12.3 9 Noroeste 14 Noroeste 0 -- -- 76
2018-05-21 02:00:00 12.5 5 Noroeste 12 Noroeste 0 -- -- 76
2018-05-21 01:00:00 12.8 8 Noroeste 17 Noroeste 0 -- -- 76
2018-05-21 00:00:00 13.4 5 Oeste 10 Noroeste 0 -- -- 68
2018-05-20 23:00:00 13.6 6 Noroeste 16 Noroeste 0 -- -- 65
2018-05-20 22:00:00 14.8 11 Noroeste 19 Noroeste 0 -- -- 61
2018-05-20 21:00:00 15.3 10 Noroeste 18 Noroeste 0 -- -- 61
2018-05-20 20:00:00 18.9 10 Noroeste 21 Noroeste 0 -- -- 58
2018-05-20 19:00:00 20.1 5 Noroeste 14 Sudoeste 0 -- -- 51
2018-05-20 18:00:00 19.8 9 Sudoeste 24 Sudoeste 0 -- -- 53
2018-05-20 17:00:00 18.7 11 Sudoeste 28 Sudoeste 0 -- -- 57
2018-05-20 16:00:00 17.9 7 Sur 32 Norte 0 -- -- 67
2018-05-20 15:00:00 14.7 14 Norte 35 Norte 0 -- -- 76
2018-05-20 14:00:00 14.6 10 Noroeste 15 Norte 0.8 -- -- 88
2018-05-20 13:00:00 17 0 Calma 11 Sudeste 0 -- -- 70
2018-05-20 12:00:00 18 6 Sur 22 Sudeste 0 -- -- 64
2018-05-20 11:00:00 17.8 11 Sur 18 Sur 0 -- -- 62
2018-05-20 10:00:00 16.3 3 Sudeste 7 Noroeste 0 -- -- 72
2018-05-20 09:00:00 14.9 2 Este 8 Noroeste 0 -- -- 80
2018-05-20 08:00:00 13 3 Sudoeste 12 Noroeste 0 -- -- 86
2018-05-20 07:00:00 12.2 5 Norte 18 Noroeste 0 -- -- 87
2018-05-20 06:00:00 12.4 2 Sur 20 Sudoeste 0 -- -- 84
2018-05-20 05:00:00 16.5 16 Norte 24 Norte 0 -- -- 60
2018-05-20 04:00:00 14.3 0 Calma 10 Noroeste 0 -- -- 63
2018-05-20 03:00:00 14.3 6 Sudoeste 14 Noroeste 0 -- -- 70
2018-05-20 02:00:00 14.2 10 Noroeste 14 Noroeste 0 -- -- 62
2018-05-20 01:00:00 15.4 0 Calma 16 Noroeste 0 -- -- 55
2018-05-20 00:00:00 15.3 6 Noroeste 21 Noroeste 0 -- -- 56
2018-05-19 23:00:00 14.8 10 Noroeste 17 Norte 0 -- -- 72
2018-05-19 22:00:00 15.9 8 Noroeste 13 Noroeste 0 -- -- 75
2018-05-19 21:00:00 16.7 5 Sudoeste 11 Noroeste 0 -- -- 72
2018-05-19 20:00:00 19.1 2 Sudoeste 7 Sur 0 -- -- 64
2018-05-19 19:00:00 19.2 5 Oeste 20 Norte 0 -- -- 59
2018-05-19 18:00:00 20.1 8 Norte 25 Noroeste 0 -- -- 54
2018-05-19 17:00:00 19.8 10 Norte 33 Norte 0 -- -- 53
2018-05-19 16:00:00 19 18 Norte 38 Nordeste 0 -- -- 57
2018-05-19 15:00:00 20.2 15 Norte 35 Norte 0.2 -- -- 61
2018-05-19 14:00:00 19.6 4 Sudoeste 15 Sudeste 0 -- -- 63
2018-05-19 13:00:00 20.7 7 Sudeste 15 Sudeste 0 -- -- 64
2018-05-19 12:00:00 19.4 7 Sur 19 Sudeste 0 -- -- 66
2018-05-19 11:00:00 18.6 6 Sur 13 Sur 0 -- -- 64
2018-05-19 10:00:00 16 5 Sur 9 Sur 0 -- -- 76
2018-05-19 09:00:00 14.3 0 Calma 9 Noroeste 0 -- -- 82
2018-05-19 08:00:00 11.8 6 Noroeste 11 Noroeste 0 -- -- 85
2018-05-19 07:00:00 11.6 4 Sudoeste 6 Sudoeste 0 -- -- 86
2018-05-19 06:00:00 12.3 6 Noroeste 13 Noroeste 0 -- -- 83
2018-05-19 05:00:00 11.5 4 Noroeste 11 Noroeste 0 -- -- 88
2018-05-19 04:00:00 12.6 2 Norte 12 Noroeste 0 -- -- 82
2018-05-19 03:00:00 12.3 7 Noroeste 13 Noroeste 0 -- -- 82
2018-05-19 02:00:00 13 6 Noroeste 14 Noroeste 0 -- -- 79
2018-05-19 01:00:00 12.8 9 Noroeste 15 Noroeste 0 -- -- 80
2018-05-19 00:00:00 13.3 4 Oeste 16 Noroeste 0 -- -- 76
2018-05-18 23:00:00 12.6 7 Noroeste 13 Noroeste 0 -- -- 82
2018-05-18 22:00:00 13.2 7 Noroeste 19 Noroeste 0 -- -- 82
2018-05-18 21:00:00 14 3 Norte 16 Noroeste 0 -- -- 80
2018-05-18 20:00:00 15.6 9 Noroeste 13 Noroeste 0 -- -- 80
2018-05-18 19:00:00 14.5 9 Noroeste 18 Noroeste 0 -- -- 87
2018-05-18 18:00:00 12.8 11 Noroeste 55 Sudeste 12.6 -- -- 92
2018-05-18 17:00:00 18.6 5 Sur 22 Sur 0.2 -- -- 68
2018-05-18 16:00:00 20.7 9 Sur 23 Sur 0 -- -- 55
2018-05-18 15:00:00 19.2 8 Este 19 Este 0 -- -- 61
2018-05-18 14:00:00 17.2 3 Sur 9 Norte 0 -- -- 68
2018-05-18 13:00:00 15.7 2 Sur 13 Sur 0 -- -- 76
2018-05-18 12:00:00 15.6 4 Sudeste 12 Sur 0 -- -- 79
2018-05-18 11:00:00 14.6 5 Sur 12 Sudoeste 0 -- -- 80
2018-05-18 10:00:00 14.3 2 Norte 5 Norte 0 -- -- 80
2018-05-18 09:00:00 12.4 2 Noroeste 12 Sur 0 -- -- 86
2018-05-18 08:00:00 11.4 3 Oeste 15 Noroeste 0 -- -- 85
2018-05-18 07:00:00 10.7 9 Noroeste 15 Noroeste 0 -- -- 84
2018-05-18 06:00:00 10.4 7 Noroeste 14 Noroeste 0 -- -- 88
2018-05-18 05:00:00 11.2 13 Noroeste 19 Noroeste 0 -- -- 86
2018-05-18 04:00:00 11.6 5 Oeste 16 Noroeste 0 -- -- 89
2018-05-18 03:00:00 11.4 10 Noroeste 21 Noroeste 0 -- -- 89
2018-05-18 02:00:00 11.7 11 Noroeste 28 Noroeste 2.6 -- -- 90
2018-05-18 01:00:00 12.7 12 Noroeste 39 Norte 1 -- -- 84
2018-05-18 00:00:00 13.1 23 Norte 37 Noroeste 1 -- -- 84
2018-05-17 23:00:00 14.7 22 Noroeste 41 Noroeste 0 -- -- 79
2018-05-17 22:00:00 15.1 10 Noroeste 27 Noroeste 0 -- -- 67
2018-05-17 21:00:00 13.9 16 Noroeste 51 Noroeste 0.4 -- -- 78
2018-05-17 20:00:00 17.5 27 Noroeste 44 Noroeste 0 -- -- 59
2018-05-17 19:00:00 19 7 Noroeste 12 Noroeste 0 -- -- 51
2018-05-17 18:00:00 20 7 Norte 35 Este 0 -- -- 47
2018-05-17 17:00:00 21.2 20 Nordeste 39 Norte 0 -- -- 45
2018-05-17 16:00:00 24.1 11 Sur 23 Sudeste 0 -- -- 35
2018-05-17 15:00:00 23.1 6 Sudeste 16 Sur 0 -- -- 43
2018-05-17 14:00:00 22 6 Sur 17 Sur 0 -- -- 44
2018-05-17 13:00:00 22 6 Sudeste 17 Sur 0 -- -- 46
2018-05-17 12:00:00 20.8 7 Sudeste 17 Sur 0 -- -- 44
2018-05-17 11:00:00 19.8 7 Sur 15 Sudeste 0 -- -- 48
2018-05-17 10:00:00 18.5 5 Este 10 Sur 0 -- -- 51
2018-05-17 09:00:00 17.4 2 Este 4 Nordeste 0 -- -- 52
2018-05-17 08:00:00 12.8 0 Calma 7 Noroeste 0 -- -- 62
2018-05-17 07:00:00 12.8 2 Noroeste 14 Sudoeste 0 -- -- 60
2018-05-17 06:00:00 14.7 9 Sudoeste 17 Sudoeste 0 -- -- 55
2018-05-17 05:00:00 15.3 3 Noroeste 18 Sudoeste 0 -- -- 50
2018-05-17 04:00:00 16.5 7 Noroeste 14 Noroeste 0 -- -- 47
2018-05-17 03:00:00 15.9 9 Noroeste 15 Noroeste 0 -- -- 51
2018-05-17 02:00:00 16.6 8 Noroeste 15 Noroeste 0 -- -- 48
2018-05-17 01:00:00 17.4 7 Noroeste 17 Noroeste 0 -- -- 46
2018-05-17 00:00:00 17.5 11 Noroeste 16 Noroeste 0 -- -- 47
2018-05-16 23:00:00 17.7 10 Noroeste 16 Noroeste 0 -- -- 47
2018-05-16 22:00:00 17.7 10 Noroeste 14 Noroeste 0 -- -- 48
2018-05-16 21:00:00 20 7 Noroeste 10 Noroeste 0 -- -- 48
2018-05-16 20:00:00 22.6 3 Sudeste 14 Sudeste 0 -- -- 43
2018-05-16 19:00:00 23.3 5 Sur 15 Sudeste 0 -- -- 39
2018-05-16 18:00:00 23.7 5 Sudeste 21 Sur 0 -- -- 44
2018-05-16 17:00:00 23.5 9 Sur 22 Sur 0 -- -- 43
2018-05-16 16:00:00 22.9 8 Sudeste 23 Sudeste 0 -- -- 48
2018-05-16 15:00:00 22.3 9 Sur 21 Sur 0 -- -- 50
2018-05-16 14:00:00 21.6 9 Sur 19 Sur 0 -- -- 49
2018-05-16 13:00:00 20.2 8 Sudeste 18 Sudeste 0 -- -- 54
2018-05-16 12:00:00 19.5 9 Sudeste 18 Sudeste 0 -- -- 53
2018-05-16 11:00:00 18 7 Sur 17 Sur 0 -- -- 55
2018-05-16 10:00:00 17.5 5 Sur 15 Sudeste 0 -- -- 55
2018-05-16 09:00:00 14.9 5 Norte 16 Noroeste 0 -- -- 64
2018-05-16 08:00:00 10.6 2 Sur 10 Noroeste 0 -- -- 79
2018-05-16 07:00:00 10.3 5 Noroeste 10 Noroeste 0 -- -- 76
2018-05-16 06:00:00 11.9 3 Sudoeste 9 Sudoeste 0 -- -- 69
2018-05-16 05:00:00 12.7 5 Sudoeste 10 Sur 0 -- -- 65
2018-05-16 04:00:00 14.1 3 Sudoeste 15 Noroeste 0 -- -- 58
2018-05-16 03:00:00 14.2 10 Noroeste 20 Noroeste 0 -- -- 56
2018-05-16 02:00:00 15 6 Noroeste 13 Noroeste 0 -- -- 51
2018-05-16 01:00:00 16.4 6 Noroeste 16 Norte 0 -- -- 46
2018-05-16 00:00:00 17.8 11 Norte 24 Norte 0 -- -- 44
2018-05-15 23:00:00 17.2 8 Norte 28 Norte 0 -- -- 46
2018-05-15 22:00:00 16.4 9 Noroeste 19 Noroeste 0 -- -- 50
2018-05-15 21:00:00 17.4 7 Noroeste 14 Noroeste 0 -- -- 52
2018-05-15 20:00:00 21 5 Sur 13 Sur 0 -- -- 45
2018-05-15 19:00:00 20.9 8 Sudeste 20 Este 0 -- -- 43
2018-05-15 18:00:00 21.8 9 Sudeste 18 Sudeste 0 -- -- 42
2018-05-15 17:00:00 21.6 9 Sudeste 18 Sudeste 0 -- -- 40
2018-05-15 16:00:00 21.2 9 Sudeste 19 Este 0 -- -- 41
2018-05-15 15:00:00 20.5 10 Sur 20 Sudeste 0 -- -- 43
2018-05-15 14:00:00 19.4 9 Sur 20 Sudeste 0 -- -- 42
2018-05-15 13:00:00 18.2 7 Sudeste 18 Sudeste 0 -- -- 45
2018-05-15 12:00:00 16.8 8 Sudeste 15 Sur 0 -- -- 46
2018-05-15 11:00:00 15.6 8 Sudeste 15 Sudeste 0 -- -- 48
2018-05-15 10:00:00 14.6 5 Sur 12 Sudeste 0 -- -- 48
2018-05-15 09:00:00 12.8 3 Sudeste 5 Sudeste 0 -- -- 53
2018-05-15 08:00:00 8.2 2 Noroeste 6 Oeste 0 -- -- 67
2018-05-15 07:00:00 8.6 4 Sudoeste 8 Oeste 0 -- -- 65
2018-05-15 06:00:00 9.7 3 Sudoeste 9 Sudoeste 0 -- -- 64
2018-05-15 05:00:00 10.3 5 Noroeste 15 Noroeste 0 -- -- 62
2018-05-15 04:00:00 10.4 2 Oeste 13 Noroeste 0 -- -- 63
2018-05-15 03:00:00 11.3 6 Noroeste 12 Noroeste 0 -- -- 59
2018-05-15 02:00:00 11.8 6 Noroeste 18 Noroeste 0 -- -- 57
2018-05-15 01:00:00 12.8 10 Noroeste 17 Oeste 0 -- -- 52
2018-05-15 00:00:00 13.1 5 Noroeste 13 Norte 0 -- -- 49
2018-05-14 23:00:00 14.1 9 Noroeste 18 Nordeste 0 -- -- 48
2018-05-14 22:00:00 15.3 10 Norte 28 Norte 0 -- -- 47
2018-05-14 21:00:00 16.4 15 Norte 34 Norte 0 -- -- 44
2018-05-14 20:00:00 17.9 19 Norte 34 Norte 0 -- -- 42
2018-05-14 19:00:00 18.6 17 Nordeste 37 Nordeste 0 -- -- 40
2018-05-14 18:00:00 19.4 19 Norte 38 Norte 0 -- -- 42
2018-05-14 17:00:00 18.4 6 Norte 36 Norte 0 -- -- 48
2018-05-14 16:00:00 18.5 21 Norte 38 Nordeste 0 -- -- 43
2018-05-14 15:00:00 17.9 12 Nordeste 33 Nordeste 0 -- -- 50
2018-05-14 14:00:00 17.5 9 Sur 16 Sudeste 0 -- -- 50
2018-05-14 13:00:00 17.2 6 Sur 17 Sudeste 0 -- -- 55
2018-05-14 12:00:00 16.5 7 Sudeste 18 Sudeste 0 -- -- 53
2018-05-14 11:00:00 15.2 7 Sudeste 17 Sudeste 0 -- -- 59
2018-05-14 10:00:00 14 6 Sudeste 16 Sudeste 0 -- -- 56
2018-05-14 09:00:00 13.9 4 Sudeste 24 Noroeste 0 -- -- 61
2018-05-14 08:00:00 10.5 11 Noroeste 20 Noroeste 0 -- -- 68
2018-05-14 07:00:00 10.7 10 Noroeste 42 Norte 0 -- -- 62
2018-05-14 06:00:00 10.7 18 Norte 32 Norte 0 -- -- 61
2018-05-14 05:00:00 9.6 7 Norte 17 Noroeste 0 -- -- 63
2018-05-14 04:00:00 9.8 6 Noroeste 14 Noroeste 0 -- -- 61
2018-05-14 03:00:00 10.7 12 Noroeste 21 Noroeste 0 -- -- 58
2018-05-14 02:00:00 11 12 Noroeste 22 Noroeste 0 -- -- 58
2018-05-14 01:00:00 12 12 Norte 44 Norte 0 -- -- 54
2018-05-11 20:00:00 -- -- -- -- -- -- -- -- --
2018-05-11 19:00:00 -- -- -- -- -- -- -- -- --
2018-05-11 18:00:00 -- -- -- -- -- -- -- -- --
2018-05-11 17:00:00 22.7 5 Noroeste 19 Oeste 0 -- -- 52
2018-05-11 16:00:00 22.5 8 Sudoeste 23 Noroeste 0 -- -- 51
2018-05-11 15:00:00 22.1 10 Sudoeste 26 Sur 0 -- -- 53
2018-05-11 14:00:00 21.7 12 Sur 26 Sur 0 -- -- 56
2018-05-11 13:00:00 21.4 13 Sudeste 25 Sudeste 0 -- -- 60
2018-05-11 12:00:00 19.3 11 Sudeste 19 Sur 0 -- -- 75
2018-05-11 11:00:00 18.1 9 Sudeste 14 Sudeste 0 -- -- 78
2018-05-11 10:00:00 16.4 6 Sur 9 Sur 0 -- -- 79
2018-05-11 09:00:00 15.6 0 Calma 6 Sudoeste 0 -- -- 82
2018-05-11 08:00:00 14.1 0 Calma 7 Noroeste 0 -- -- 84
2018-05-11 07:00:00 13.6 0 Calma 8 Sudoeste 0 -- -- 84
2018-05-11 06:00:00 14.2 3 Noroeste 13 Noroeste 0 -- -- 80
2018-05-11 05:00:00 14.4 0 Calma 5 Sudoeste 0 -- -- 78
2018-05-11 04:00:00 14.9 3 Oeste 11 Noroeste 0 -- -- 75
2018-05-11 03:00:00 15.6 10 Noroeste 21 Noroeste 0 -- -- 74
2018-05-11 02:00:00 16.9 10 Noroeste 17 Noroeste 0 -- -- 68
2018-05-11 01:00:00 17.3 9 Noroeste 23 Noroeste 0 -- -- 64
2018-05-11 00:00:00 16.8 13 Noroeste 22 Noroeste 0 -- -- 69
2018-05-10 23:00:00 16.6 10 Noroeste 21 Noroeste 0 -- -- 72
2018-05-10 22:00:00 17.4 8 Noroeste 15 Noroeste 0 -- -- 69
2018-05-10 21:00:00 18.9 3 Norte 11 Oeste 0 -- -- 65
2018-05-10 20:00:00 21.8 5 Oeste 12 Noroeste 0 -- -- 58
2018-05-10 19:00:00 21.4 3 Sur 13 Sur 0 -- -- 59
2018-05-10 18:00:00 22.1 3 Sur 14 Sudoeste 0 -- -- 55
2018-05-10 17:00:00 22.8 7 Sur 18 Sur 0 -- -- 54
2018-05-10 16:00:00 22.6 10 Sur 19 Sudeste 0 -- -- 55
2018-05-10 15:00:00 22.1 8 Sur 24 Sudeste 0 -- -- 57
2018-05-10 14:00:00 21.1 6 Sur 23 Sur 0 -- -- 60
2018-05-10 13:00:00 20.2 10 Sur 20 Sudeste 0 -- -- 62
2018-05-10 12:00:00 19.3 11 Sur 19 Sur 0 -- -- 66
2018-05-10 11:00:00 16.6 6 Sur 15 Sudeste 0 -- -- 76
2018-05-10 10:00:00 16.1 7 Sur 18 Sur 0 -- -- 79
2018-05-10 09:00:00 14.3 3 Sudeste 5 Sudeste 0 -- -- 87
2018-05-10 08:00:00 11 0 Calma 6 Norte 0 -- -- 99
2018-05-10 07:00:00 9.8 5 Norte 8 Norte 0 -- -- 96
2018-05-10 06:00:00 10.9 3 Sur 6 Sudoeste 0 -- -- 95
2018-05-10 05:00:00 11.8 0 Calma 6 Sudoeste 0 -- -- 94
2018-05-10 04:00:00 12.5 2 Norte 8 Sur 0 -- -- 92
2018-05-10 03:00:00 13.5 3 Sur 10 Sudoeste 0 -- -- 87
2018-05-10 02:00:00 14.5 6 Noroeste 10 Noroeste 0 -- -- 85
2018-05-10 01:00:00 17.2 4 Sur 28 Norte 0 -- -- 73
2018-05-10 00:00:00 18.2 8 Noroeste 32 Norte 0 -- -- 64
2018-05-09 23:00:00 18.5 23 Noroeste 35 Norte 0 -- -- 66
2018-05-09 22:00:00 18.3 12 Norte 33 Noroeste 0 -- -- 68
2018-05-09 21:00:00 19.8 11 Noroeste 28 Noroeste 0 -- -- 67
2018-05-09 20:00:00 21.2 12 Noroeste 26 Noroeste 0 -- -- 57
2018-05-09 19:00:00 22.8 10 Noroeste 26 Norte 0 -- -- 52
2018-05-09 18:00:00 22.7 12 Noroeste 30 Noroeste 0 -- -- 52
2018-05-09 17:00:00 23.4 12 Noroeste 31 Noroeste 0 -- -- 48
2018-05-09 16:00:00 23.8 13 Noroeste 30 Oeste 0 -- -- 47
2018-05-09 15:00:00 23.6 16 Noroeste 33 Noroeste 0 -- -- 47
2018-05-09 14:00:00 23.1 7 Norte 22 Noroeste 0 -- -- 52
2018-05-09 13:00:00 21.3 6 Sudeste 18 Sudeste 0 -- -- 71
2018-05-09 12:00:00 20.6 8 Sur 15 Sudeste 0 -- -- 69
2018-05-09 11:00:00 19.3 7 Sur 14 Sudeste 0 -- -- 69
2018-05-09 10:00:00 18.1 5 Sudeste 10 Sudeste 0 -- -- 75
2018-05-09 09:00:00 17 2 Sudeste 4 Sudeste 0 -- -- 73
2018-05-09 08:00:00 14.4 2 Sudoeste 9 Noroeste 0 -- -- 78
2018-05-09 07:00:00 14.5 0 Calma 13 Norte 0 -- -- 73
2018-05-09 06:00:00 14.8 2 Sur 9 Noroeste 0 -- -- 75
2018-05-09 05:00:00 14.9 3 Oeste 16 Noroeste 0 -- -- 75
2018-05-09 04:00:00 15.1 12 Noroeste 17 Noroeste 0 -- -- 74
2018-05-09 03:00:00 14.9 6 Noroeste 12 Noroeste 0 -- -- 75
2018-05-09 02:00:00 16 6 Noroeste 16 Noroeste 0 -- -- 65
2018-05-09 01:00:00 18.2 5 Norte 26 Norte 0 -- -- 52
2018-05-09 00:00:00 19.7 12 Norte 37 Noroeste 0 -- -- 53
2018-05-08 23:00:00 18.9 16 Noroeste 41 Norte 0 -- -- 62
2018-05-08 22:00:00 19.8 19 Norte 38 Noroeste 0 -- -- 60
2018-05-08 21:00:00 20.3 15 Norte 29 Noroeste 0 -- -- 58
2018-05-08 20:00:00 22.6 10 Norte 20 Norte 0 -- -- 58
2018-05-08 19:00:00 19.8 12 Norte 31 Noroeste 0 -- -- 63
2018-05-08 18:00:00 20.9 14 Norte 27 Norte 0 -- -- 61
2018-05-08 17:00:00 22.3 10 Norte 21 Norte 0 -- -- 63
2018-05-08 16:00:00 23.8 7 Oeste 16 Noroeste 0 -- -- 48
2018-05-08 15:00:00 23.4 3 Este 16 Sudeste 0.2 -- -- 50
2018-05-08 14:00:00 23.1 10 Sudeste 18 Sudeste 0 -- -- 57
2018-05-08 13:00:00 22.4 7 Sudeste 17 Sudeste 0 -- -- 58
2018-05-08 12:00:00 21 8 Sur 14 Sur 0 -- -- 59
2018-05-08 11:00:00 19.5 4 Este 8 Este 0 -- -- 69
2018-05-08 10:00:00 18.1 5 Sudeste 13 Sur 0 -- -- 71
2018-05-08 09:00:00 17.7 3 Sudoeste 9 Noroeste 0 -- -- 72
2018-05-08 08:00:00 14.9 2 Oeste 10 Noroeste 0 -- -- 77
2018-05-08 07:00:00 15.5 0 Calma 7 Oeste 0 -- -- 70
2018-05-08 06:00:00 15.5 2 Oeste 15 Noroeste 0 -- -- 71
2018-05-08 05:00:00 15.4 0 Calma 10 Norte 0 -- -- 71
2018-05-08 04:00:00 17 10 Norte 29 Norte 0 -- -- 65
2018-05-08 03:00:00 16.4 20 Norte 35 Noroeste 0 -- -- 67
2018-05-08 02:00:00 13.9 15 Noroeste 28 Norte 1.4 -- -- 85
2018-05-08 01:00:00 15 18 Norte 44 Norte 0.8 -- -- 77
2018-05-08 00:00:00 17.2 20 Norte 33 Norte 0 -- -- 73
2018-05-07 23:00:00 18.5 14 Norte 23 Norte 0 -- -- 63
2018-05-07 22:00:00 17.7 4 Norte 9 Noroeste 0 -- -- 68
2018-05-07 21:00:00 19 0 Calma 15 Noroeste 0 -- -- 64
2018-05-07 20:00:00 18.9 9 Noroeste 22 Noroeste 0 -- -- 64
2018-05-07 19:00:00 21.1 6 Norte 13 Norte 0 -- -- 56
2018-05-07 18:00:00 21.5 4 Sur 13 Noroeste 0 -- -- 49
2018-05-07 17:00:00 17.9 12 Noroeste 40 Norte 0 -- -- 71
2018-05-07 16:00:00 19.4 10 Norte 22 Sudeste 0 -- -- 63
2018-05-07 15:00:00 22.5 6 Sur 20 Sur 0 -- -- 52
2018-05-07 14:00:00 21.2 8 Sudeste 15 Sudeste 0 -- -- 55
2018-05-07 13:00:00 21.3 5 Sudeste 11 Sur 0 -- -- 54
2018-05-07 12:00:00 19.2 4 Sur 13 Sur 0 -- -- 63
2018-05-07 11:00:00 19.4 8 Sudeste 14 Sudeste 0 -- -- 59
2018-05-07 10:00:00 18.5 3 Este 7 Este 0 -- -- 60
2018-05-07 09:00:00 17 0 Calma 6 Sudoeste 0 -- -- 69
2018-05-07 08:00:00 14.5 3 Sudoeste 9 Sudoeste 0 -- -- 70
2018-05-07 07:00:00 14.1 3 Sur 12 Noroeste 0 -- -- 70
2018-05-07 06:00:00 14.6 3 Sudoeste 12 Noroeste 0 -- -- 66
2018-05-07 05:00:00 15.2 3 Noroeste 12 Noroeste 0 -- -- 63
2018-05-07 04:00:00 15.6 4 Noroeste 10 Oeste 0 -- -- 62
2018-05-07 03:00:00 16.7 6 Sudoeste 20 Sur 0 -- -- 58
2018-05-07 02:00:00 16.6 7 Noroeste 13 Noroeste 0 -- -- 56
2018-05-07 01:00:00 17.2 5 Noroeste 14 Noroeste 0 -- -- 55
2018-05-07 00:00:00 17.5 6 Noroeste 13 Noroeste 0 -- -- 53
2018-05-06 23:00:00 16.7 7 Noroeste 15 Noroeste 0 -- -- 58
2018-05-06 22:00:00 16.3 7 Norte 14 Norte 0 -- -- 62
2018-05-06 21:00:00 17.3 8 Noroeste 15 Noroeste 0 -- -- 63
2018-05-06 20:00:00 19 5 Noroeste 8 Noroeste 0 -- -- 59
2018-05-06 19:00:00 21.8 3 Noroeste 9 Sur 0 -- -- 51
2018-05-06 18:00:00 21.9 3 Sur 17 Sur 0 -- -- 47
2018-05-06 17:00:00 21.4 9 Sur 17 Sudeste 0 -- -- 51
2018-05-06 16:00:00 21.7 12 Sur 21 Sur 0 -- -- 51
2018-05-06 15:00:00 21.4 10 Sur 27 Este 0 -- -- 51
2018-05-06 14:00:00 19.9 11 Sur 28 Sur 0 -- -- 55
2018-05-06 13:00:00 20.6 14 Sudeste 28 Sur 0 -- -- 57
2018-05-06 12:00:00 19.5 11 Sur 23 Sur 0 -- -- 59
2018-05-06 11:00:00 18.2 7 Sur 14 Sur 0 -- -- 66
2018-05-06 10:00:00 16.6 6 Sur 17 Sur 0 -- -- 73
2018-05-06 09:00:00 13.1 3 Sur 6 Noroeste 0 -- -- 83
2018-05-06 08:00:00 12.2 2 Sur 13 Sudoeste 0 -- -- 84
2018-05-06 07:00:00 12.9 3 Noroeste 8 Noroeste 0 -- -- 77
2018-05-06 06:00:00 14.1 5 Sudoeste 12 Sur 0 -- -- 71
2018-05-06 05:00:00 13.7 5 Sudoeste 12 Sudoeste 0 -- -- 72
2018-05-06 04:00:00 14.8 8 Sudoeste 25 Sur 0 -- -- 67
2018-05-06 03:00:00 15.6 4 Sudoeste 6 Sudoeste 0 -- -- 61
2018-05-06 02:00:00 16.1 3 Sudoeste 12 Noroeste 0 -- -- 59
2018-05-06 01:00:00 16.5 6 Noroeste 13 Noroeste 0 -- -- 58
2018-05-06 00:00:00 16.6 8 Noroeste 24 Norte 0 -- -- 57
2018-05-05 23:00:00 15.9 12 Noroeste 19 Noroeste 0 -- -- 57
2018-05-05 22:00:00 16.7 5 Noroeste 11 Noroeste 0 -- -- 58
2018-05-05 21:00:00 18.5 6 Norte 19 Norte 0 -- -- 54
2018-05-05 20:00:00 21.5 11 Norte 18 Norte 0 -- -- 45
2018-05-05 19:00:00 22.2 3 Este 15 Este 0 -- -- 46
2018-05-05 18:00:00 22.8 5 Sudeste 24 Sudeste 0 -- -- 42
2018-05-05 17:00:00 22.9 12 Sur 27 Sudeste 0 -- -- 43
2018-05-05 16:00:00 22.2 12 Sur 27 Sudeste 0 -- -- 45
2018-05-05 15:00:00 21.6 13 Sur 26 Sudeste 0 -- -- 48
2018-05-05 14:00:00 20.3 11 Sudeste 21 Sudeste 0 -- -- 49
2018-05-05 13:00:00 19.4 10 Sur 22 Sudeste 0 -- -- 50
2018-05-05 12:00:00 18.6 9 Sudeste 16 Sudeste 0 -- -- 48
2018-05-05 11:00:00 17.3 8 Sudeste 13 Sudeste 0 -- -- 58
2018-05-05 10:00:00 15.6 4 Este 8 Sudeste 0 -- -- 60
2018-05-05 09:00:00 13.4 4 Este 8 Sudoeste 0 -- -- 64
2018-05-05 08:00:00 9.8 0 Calma 9 Sudoeste 0 -- -- 75
2018-05-05 07:00:00 10.8 7 Noroeste 18 Noroeste 0 -- -- 67
2018-05-05 06:00:00 10.3 6 Noroeste 16 Noroeste 0 -- -- 71
2018-05-05 05:00:00 11.5 11 Noroeste 21 Noroeste 0 -- -- 66
2018-05-05 04:00:00 13.2 8 Noroeste 12 Noroeste 0 -- -- 56
2018-05-05 03:00:00 13.2 9 Noroeste 13 Noroeste 0 -- -- 56
2018-05-05 02:00:00 13.7 5 Noroeste 17 Noroeste 0 -- -- 56
2018-05-05 01:00:00 13.4 10 Noroeste 16 Noroeste 0 -- -- 57
2018-05-05 00:00:00 12.6 10 Noroeste 15 Noroeste 0 -- -- 61
2018-05-04 23:00:00 12.9 6 Noroeste 12 Noroeste 0 -- -- 59
2018-05-04 22:00:00 12.8 6 Noroeste 15 Noroeste 0 -- -- 63
2018-05-04 21:00:00 13.9 6 Noroeste 8 Noroeste 0 -- -- 59
2018-05-04 20:00:00 17.2 3 Sudoeste 12 Sur 0 -- -- 51
2018-05-04 19:00:00 17.9 4 Sur 17 Sur 0 -- -- 47
2018-05-04 18:00:00 18.1 5 Sudeste 17 Sudeste 0 -- -- 45
2018-05-04 17:00:00 17.8 9 Sur 22 Sudeste 0 -- -- 44
2018-05-04 16:00:00 17.8 9 Sur 21 Sudeste 0 -- -- 45
2018-05-04 15:00:00 17.1 7 Sudeste 21 Sudeste 0 -- -- 43
2018-05-04 14:00:00 16.2 10 Sudeste 23 Sudeste 0 -- -- 44
2018-05-04 13:00:00 15.3 9 Sur 19 Sudeste 0 -- -- 43
2018-05-04 12:00:00 13.9 7 Sur 17 Sudeste 0 -- -- 47
2018-05-04 11:00:00 12.5 10 Sudeste 18 Sur 0 -- -- 49
2018-05-04 10:00:00 11.8 6 Sudeste 13 Sudeste 0 -- -- 49
2018-05-04 09:00:00 10.2 3 Sudeste 6 Norte 0 -- -- 52
2018-05-04 08:00:00 5.5 2 Norte 10 Noroeste 0 -- -- 64
2018-05-04 07:00:00 6.1 2 Sudeste 9 Sur 0 -- -- 59
2018-05-04 06:00:00 7.4 2 Oeste 13 Noroeste 0 -- -- 53
2018-05-04 05:00:00 6.4 10 Noroeste 15 Noroeste 0 -- -- 60
2018-05-04 04:00:00 7.8 5 Sudoeste 15 Sudoeste 0 -- -- 59
2018-05-04 03:00:00 8.8 0 Calma 11 Nordeste 0 -- -- 54
2018-05-04 02:00:00 9.7 3 Nordeste 12 Noroeste 0 -- -- 50
2018-05-04 01:00:00 11.5 2 Norte 22 Norte 0 -- -- 40
2018-05-04 00:00:00 12.3 12 Norte 19 Norte 0 -- -- 38
2018-05-03 23:00:00 13.9 8 Norte 31 Norte 0 -- -- 23
2018-05-03 22:00:00 13.8 12 Noroeste 38 Norte 0 -- -- 40
2018-05-03 21:00:00 14.6 17 Norte 46 Norte 0 -- -- 40
2018-05-03 20:00:00 15.6 20 Norte 34 Norte 0 -- -- 40
2018-05-03 19:00:00 16.4 21 Norte 45 Norte 0 -- -- 43
2018-05-03 18:00:00 18 16 Norte 35 Nordeste 0 -- -- 42
2018-05-03 17:00:00 18.2 15 Nordeste 35 Norte 0 -- -- 43
2018-05-03 16:00:00 17.7 9 Norte 26 Nordeste 0 -- -- 48
2018-05-03 15:00:00 17.3 4 Norte 14 Sudeste 0 -- -- 47
2018-05-03 14:00:00 16.5 8 Sur 16 Sudeste 0 -- -- 59
2018-05-03 13:00:00 15.7 8 Sudeste 15 Sudeste 0 -- -- 60
2018-05-03 12:00:00 15.1 7 Sur 12 Sur 0 -- -- 69
2018-05-03 11:00:00 14.5 5 Sur 17 Sudoeste 0 -- -- 67
2018-05-03 10:00:00 15.1 7 Sudeste 24 Nordeste 0 -- -- 62
2018-05-03 09:00:00 15.2 10 Nordeste 23 Norte 0 -- -- 51
2018-05-03 08:00:00 11.6 6 Noroeste 23 Nordeste 0 -- -- 64
2018-05-03 07:00:00 11.7 8 Norte 25 Noroeste 0 -- -- 63
2018-05-03 06:00:00 10.2 0 Calma 9 Noroeste 0 -- -- 68
2018-05-03 05:00:00 9.9 2 Sudoeste 10 Noroeste 0 -- -- 71
2018-05-03 04:00:00 11.6 4 Noroeste 19 Noroeste 0 -- -- 63
2018-05-03 03:00:00 12 13 Noroeste 22 Noroeste 0 -- -- 63
2018-05-03 02:00:00 12.8 8 Norte 42 Noroeste 0 -- -- 61
2018-05-03 01:00:00 12.3 21 Norte 39 Norte 0 -- -- 64
2018-05-03 00:00:00 12.5 25 Norte 37 Norte 0 -- -- 64
2018-05-02 23:00:00 12.3 13 Norte 22 Norte 0 -- -- 65
2018-05-02 22:00:00 13.2 12 Norte 23 Noroeste 0 -- -- 58
2018-05-02 21:00:00 14.3 11 Norte 27 Noroeste 0 -- -- 53
2018-05-02 20:00:00 15.3 5 Norte 39 Noroeste 0 -- -- 51
2018-05-02 19:00:00 16.8 16 Noroeste 31 Oeste 0 -- -- 45
2018-05-02 18:00:00 17.3 13 Noroeste 30 Noroeste 0 -- -- 40
2018-05-02 17:00:00 17.4 12 Noroeste 28 Oeste 0 -- -- 34
2018-05-02 16:00:00 17.1 8 Sudeste 23 Oeste 0 -- -- 38
2018-05-02 15:00:00 16.1 9 Este 21 Sudeste 0 -- -- 45
2018-05-02 14:00:00 14 8 Sudeste 18 Este 0 -- -- 54
2018-05-02 13:00:00 12 4 Sudeste 17 Sudeste 0 -- -- 60
2018-05-02 12:00:00 11.6 7 Sur 16 Sudeste 0 -- -- 62
2018-05-02 11:00:00 10.7 6 Sur 14 Sudeste 0 -- -- 63
2018-05-02 10:00:00 10.4 6 Sudeste 12 Sur 0 -- -- 66
2018-05-02 09:00:00 9.9 3 Sudeste 5 Sudeste 0 -- -- 56
2018-05-02 08:00:00 6.1 0 Calma 5 Sur 0 -- -- 67
2018-05-02 07:00:00 7.8 4 Sudoeste 19 Oeste 0 -- -- 58
2018-05-02 06:00:00 8.5 13 Noroeste 19 Noroeste 0 -- -- 50
2018-05-02 05:00:00 7.8 12 Noroeste 24 Noroeste 0 -- -- 62
2018-05-02 04:00:00 7.9 9 Noroeste 16 Noroeste 0 -- -- 64
2018-05-02 03:00:00 7.6 10 Noroeste 19 Noroeste 0 -- -- 67
2018-05-02 02:00:00 7.8 7 Noroeste 20 Norte 0 -- -- 66
2018-05-02 01:00:00 8.6 7 Noroeste 17 Noroeste 0 -- -- 62
2018-05-02 00:00:00 8 9 Noroeste 14 Noroeste 0 -- -- 66
2018-05-01 23:00:00 8.7 4 Noroeste 12 Noroeste 0 -- -- 61
2018-05-01 22:00:00 8.8 6 Noroeste 12 Noroeste 0 -- -- 60
2018-05-01 21:00:00 11.7 3 Sur 7 Sudoeste 0 -- -- 62
2018-05-01 20:00:00 13.3 0 Calma 13 Sur 0 -- -- 53
2018-05-01 19:00:00 13.4 3 Sur 17 Sudeste 0 -- -- 58
2018-05-01 18:00:00 13.5 6 Sudeste 24 Este 0 -- -- 53
2018-05-01 17:00:00 14.3 8 Este 17 Sudeste 0 -- -- 55
2018-05-01 16:00:00 11.6 4 Este 18 Sudeste 0 -- -- 65
2018-05-01 15:00:00 10.4 8 Sudeste 19 Sudeste 0 -- -- 72
2018-05-01 14:00:00 11.8 7 Sudeste 14 Sudeste 0 -- -- 68
2018-05-01 13:00:00 9.8 3 Sudeste 9 Sur 0 -- -- 70
2018-05-01 12:00:00 8.8 5 Sur 13 Sur 0 -- -- 75
2018-05-01 11:00:00 9.4 5 Sur 17 Sudeste 0 -- -- 68
2018-05-01 10:00:00 10.6 5 Sur 12 Sudeste 0 -- -- 63
2018-05-01 09:00:00 8 0 Calma 8 Noroeste 0 -- -- 73
2018-05-01 08:00:00 4.5 3 Noroeste 6 Noroeste 0 -- -- 86
2018-05-01 07:00:00 4.7 4 Noroeste 9 Noroeste 0 -- -- 83
2018-05-01 06:00:00 4.9 2 Sudoeste 12 Noroeste 0 -- -- 81
2018-05-01 05:00:00 4.7 7 Noroeste 13 Noroeste 0 -- -- 83
2018-05-01 04:00:00 5.5 7 Noroeste 14 Noroeste 0 -- -- 82
2018-05-01 03:00:00 5.9 0 Calma 8 Noroeste 0 -- -- 81
2018-05-01 02:00:00 7.1 5 Noroeste 22 Norte 0 -- -- 72
2018-05-01 01:00:00 7.4 14 Noroeste 22 Noroeste 0 -- -- 72
2018-05-01 00:00:00 6.8 8 Noroeste 19 Noroeste 0 -- -- 75
2018-04-30 23:00:00 5.9 4 Noroeste 18 Noroeste 0.2 -- -- 86
2018-04-30 22:00:00 7.1 9 Noroeste 37 Norte 0.2 -- -- 80
2018-04-30 21:00:00 9.2 8 Norte 16 Norte 0 -- -- 62
2018-04-30 20:00:00 11.1 10 Norte 23 Noroeste 0 -- -- 52
2018-04-30 19:00:00 11.8 10 Noroeste 28 Noroeste 0 -- -- 50
2018-04-30 18:00:00 12.4 12 Norte 27 Noroeste 0 -- -- 47
2018-04-30 17:00:00 11.6 10 Noroeste 28 Norte 0 -- -- 50
2018-04-30 16:00:00 12.5 10 Noroeste 25 Noroeste 0 -- -- 49
2018-04-30 15:00:00 12.2 10 Norte 27 Noroeste 0 -- -- 49
2018-04-30 14:00:00 11.9 8 Noroeste 24 Noroeste 0 -- -- 49
2018-04-30 13:00:00 10.3 9 Norte 24 Norte 0 -- -- 51
2018-04-30 12:00:00 9.4 6 Norte 24 Noroeste 0 -- -- 66
2018-04-30 11:00:00 7.5 5 Norte 11 Norte 0 -- -- 75
2018-04-30 10:00:00 5.4 3 Sur 6 Sudoeste 0 -- -- 86
2018-04-30 09:00:00 4.3 2 Noroeste 6 Norte 0 -- -- 80
2018-04-30 08:00:00 3.4 4 Sudoeste 8 Oeste 0 -- -- 85
2018-04-30 07:00:00 2.7 0 Calma 13 Noroeste 0 -- -- 88
2018-04-30 06:00:00 3 2 Sudoeste 8 Oeste 0 -- -- 90
2018-04-30 05:00:00 3 3 Norte 15 Norte 0 -- -- 90
2018-04-30 04:00:00 2.7 4 Noroeste 15 Norte 0 -- -- 87
2018-04-30 03:00:00 2.9 5 Norte 14 Norte 0 -- -- 87
2018-04-30 02:00:00 3.3 4 Norte 16 Norte 0 -- -- 87
2018-04-30 01:00:00 3.9 0 Calma 26 Noroeste 0 -- -- 84
2018-04-30 00:00:00 4.8 6 Noroeste 22 Noroeste 0 -- -- 78
2018-04-29 23:00:00 5.8 10 Noroeste 28 Noroeste 0 -- -- 77
2018-04-29 22:00:00 6.2 9 Noroeste 25 Noroeste 0 -- -- 77
2018-04-29 21:00:00 6.4 11 Noroeste 36 Norte 0 -- -- 72
2018-04-29 20:00:00 7.1 19 Noroeste 41 Noroeste 0 -- -- 77
2018-04-29 19:00:00 7.4 15 Noroeste 44 Noroeste 0.2 -- -- 81
2018-04-29 18:00:00 7.3 15 Noroeste 37 Noroeste 2.4 -- -- 79
2018-04-29 17:00:00 9.8 12 Oeste 37 Noroeste 0 -- -- 68
2018-04-29 16:00:00 8.6 16 Noroeste 38 Oeste 2.4 -- -- 82
2018-04-29 15:00:00 10.6 17 Noroeste 39 Noroeste 0.2 -- -- 65
2018-04-29 14:00:00 10.7 10 Noroeste 27 Oeste 0 -- -- 65
2018-04-29 13:00:00 10.2 12 Noroeste 33 Noroeste 0 -- -- 68
2018-04-29 12:00:00 8.7 15 Noroeste 34 Noroeste 0 -- -- 76
2018-04-29 11:00:00 7.4 18 Noroeste 47 Noroeste 0 -- -- 83
2018-04-29 10:00:00 5.2 10 Noroeste 32 Noroeste 0 -- -- 89
2018-04-29 09:00:00 5.1 9 Noroeste 34 Oeste 0 -- -- 90
2018-04-29 08:00:00 4.5 17 Noroeste 39 Noroeste 0.6 -- -- 95
2018-04-29 07:00:00 4.6 18 Noroeste 36 Noroeste 1 -- -- 91
2018-04-29 06:00:00 4.8 0 Calma 4 Este 0.6 -- -- 94
2018-04-29 05:00:00 4.8 2 Norte 9 Nordeste 0.4 -- -- 92
2018-04-29 04:00:00 5.2 3 Norte 9 Este 0 -- -- 86
2018-04-29 03:00:00 5.9 10 Noroeste 29 Noroeste 0 -- -- 82
2018-04-29 02:00:00 6.9 11 Norte 23 Noroeste 0 -- -- 79
2018-04-29 01:00:00 6.7 12 Noroeste 33 Norte 0 -- -- 78
2018-04-29 00:00:00 7.3 22 Noroeste 36 Noroeste 0 -- -- 75
2018-04-28 23:00:00 8.6 17 Noroeste 33 Noroeste 0 -- -- 71
2018-04-28 22:00:00 9.3 2 Sudoeste 10 Sur 0 -- -- 63
2018-04-28 21:00:00 10.6 5 Sudoeste 18 Oeste 0 -- -- 58
2018-04-28 20:00:00 11.9 4 Sur 17 Sudoeste 0 -- -- 51
2018-04-28 19:00:00 12.1 6 Sudoeste 16 Sur 0 -- -- 48
2018-04-28 18:00:00 12.3 6 Sudoeste 24 Sudoeste 0 -- -- 53
2018-04-28 17:00:00 12.8 8 Sur 25 Sur 0 -- -- 53
2018-04-28 16:00:00 13.3 8 Noroeste 26 Sur 0 -- -- 46
2018-04-28 15:00:00 11.3 6 Sur 20 Sudeste 0 -- -- 56
2018-04-28 14:00:00 11 6 Sur 23 Sudeste 0 -- -- 61
2018-04-28 13:00:00 10.6 8 Sur 22 Sur 0 -- -- 62
2018-04-28 12:00:00 10.1 5 Sur 26 Sudeste 0 -- -- 65
2018-04-28 11:00:00 10.2 11 Sudeste 22 Sur 0 -- -- 67
2018-04-28 10:00:00 10.1 9 Sudeste 17 Sudeste 0 -- -- 72
2018-04-28 09:00:00 7.5 3 Este 5 Este 0 -- -- 81
2018-04-28 08:00:00 4.5 3 Noroeste 4 Norte 0 -- -- 87
2018-04-28 07:00:00 5.1 3 Noroeste 8 Noroeste 0 -- -- 85
2018-04-28 06:00:00 6.1 3 Sudoeste 6 Sudoeste 0 -- -- 80
2018-04-28 05:00:00 6.6 5 Norte 13 Noroeste 0 -- -- 77
2018-04-28 04:00:00 8.1 3 Sudoeste 21 Noroeste 0 -- -- 68
2018-04-28 03:00:00 9.7 10 Noroeste 16 Norte 0 -- -- 58
2018-04-28 02:00:00 10.3 9 Nordeste 17 Norte 0 -- -- 75
2018-04-28 01:00:00 11.5 8 Norte 23 Noroeste 0 -- -- 68
2018-04-28 00:00:00 12.3 14 Noroeste 29 Noroeste 0 -- -- 71
2018-04-27 23:00:00 13.3 18 Noroeste 32 Noroeste 0 -- -- 69
2018-04-27 22:00:00 14.8 18 Noroeste 32 Noroeste 0 -- -- 65
2018-04-27 21:00:00 16.2 7 Oeste 17 Noroeste 0 -- -- 61
2018-04-27 20:00:00 18.1 6 Oeste 22 Oeste 0 -- -- 50
2018-04-27 19:00:00 19.8 10 Noroeste 23 Noroeste 0 -- -- 44
2018-04-27 18:00:00 20.7 10 Oeste 24 Noroeste 0 -- -- 42
2018-04-27 17:00:00 21.2 12 Noroeste 27 Noroeste 0 -- -- 39
2018-04-27 16:00:00 21.9 14 Noroeste 31 Noroeste 0 -- -- 36
2018-04-27 15:00:00 21.8 12 Noroeste 33 Noroeste 0 -- -- 36
2018-04-27 14:00:00 21.3 5 Nordeste 20 Sudeste 0 -- -- 41
2018-04-27 13:00:00 19.5 10 Sur 18 Sur 0 -- -- 65
2018-04-27 12:00:00 18.2 11 Sur 21 Sudeste 0 -- -- 69
2018-04-27 11:00:00 17.2 12 Sur 18 Sur 0 -- -- 70
2018-04-27 10:00:00 15.7 6 Sudeste 10 Sudeste 0 -- -- 80
2018-04-27 09:00:00 13.5 3 Sudeste 8 Sudeste 0 -- -- 82
2018-04-27 08:00:00 9.9 2 Norte 10 Sudoeste 0 -- -- 93
2018-04-27 07:00:00 11.8 2 Sudoeste 6 Norte 0 -- -- 78
2018-04-27 06:00:00 12.1 0 Calma 12 Sudoeste 0 -- -- 83
2018-04-27 05:00:00 14.2 4 Noroeste 12 Noroeste 0 -- -- 63
2018-04-27 04:00:00 16.4 3 Sur 23 Noroeste 0 -- -- 61
2018-04-27 03:00:00 17 13 Noroeste 23 Noroeste 0 -- -- 64
2018-04-27 02:00:00 17.6 8 Noroeste 22 Noroeste 0 -- -- 72
2018-04-27 01:00:00 18 8 Noroeste 25 Noroeste 0 -- -- 73
2018-04-27 00:00:00 17.9 7 Noroeste 16 Noroeste 0 -- -- 66
2018-04-26 23:00:00 16.7 8 Noroeste 13 Noroeste 0 -- -- 69
2018-04-26 22:00:00 18.9 7 Noroeste 16 Oeste 0 -- -- 59
2018-04-26 21:00:00 20.7 9 Noroeste 24 Noroeste 0 -- -- 56
2018-04-26 20:00:00 22.7 10 Noroeste 23 Noroeste 0 -- -- 48
2018-04-26 19:00:00 24.1 12 Noroeste 30 Noroeste 0 -- -- 41
2018-04-26 18:00:00 25.5 10 Noroeste 22 Oeste 0 -- -- 38
2018-04-26 17:00:00 24.6 6 Este 27 Sudeste 0 -- -- 41
2018-04-26 16:00:00 24.2 11 Sudeste 24 Sudeste 0 -- -- 43
2018-04-26 15:00:00 24.1 10 Sudeste 17 Sudeste 0 -- -- 43
2018-04-26 14:00:00 23.2 9 Sudeste 21 Sur 0 -- -- 44
2018-04-26 13:00:00 22.4 11 Sudeste 18 Sur 0 -- -- 43
2018-04-26 12:00:00 21.5 7 Sudeste 15 Sudeste 0 -- -- 45
2018-04-26 11:00:00 20.1 6 Sur 14 Sur 0 -- -- 45
2018-04-26 10:00:00 19.4 6 Sur 12 Sur 0 -- -- 46
2018-04-26 09:00:00 18 2 Nordeste 7 Oeste 0 -- -- 52
2018-04-26 08:00:00 14.1 3 Noroeste 9 Noroeste 0 -- -- 57
2018-04-26 07:00:00 14.2 3 Oeste 12 Sudoeste 0 -- -- 52
2018-04-26 06:00:00 15.8 6 Sudoeste 11 Sudoeste 0 -- -- 55
2018-04-26 05:00:00 16.6 5 Noroeste 8 Noroeste 0 -- -- 62
2018-04-26 04:00:00 16.4 3 Sudoeste 14 Noroeste 0 -- -- 62
2018-04-26 03:00:00 18.3 7 Oeste 14 Sudeste 0 -- -- 53
2018-04-26 02:00:00 19.8 3 Norte 21 Oeste 0 -- -- 55
2018-04-26 01:00:00 21.3 7 Sudeste 24 Norte 0 -- -- 47
2018-04-26 00:00:00 22.6 14 Norte 30 Nordeste 0 -- -- 44
2018-04-25 23:00:00 23.1 17 Norte 33 Norte 0 -- -- 40
2018-04-25 22:00:00 23.4 22 Norte 41 Norte 0 -- -- 42
2018-04-25 21:00:00 24 21 Norte 40 Norte 0 -- -- 38
2018-04-25 20:00:00 25.1 19 Norte 43 Norte 0 -- -- 35
2018-04-25 19:00:00 26.3 15 Nordeste 28 Nordeste 0 -- -- 33
2018-04-25 18:00:00 24.8 4 Este 17 Sur 0 -- -- 50
2018-04-25 17:00:00 25.3 11 Sudeste 18 Sudeste 0 -- -- 45
2018-04-25 16:00:00 25.8 10 Sur 18 Sudeste 0 -- -- 42
2018-04-25 15:00:00 25.1 10 Sudeste 21 Sudeste 0 -- -- 43
2018-04-25 14:00:00 24.5 10 Sudeste 19 Sudeste 0 -- -- 41
2018-04-25 13:00:00 24.2 10 Sudeste 15 Sudeste 0 -- -- 37
2018-04-25 12:00:00 21.1 5 Sur 13 Sudeste 0 -- -- 48
2018-04-25 11:00:00 18.2 5 Sudeste 12 Sudeste 0 -- -- 57
2018-04-25 10:00:00 16.5 3 Este 18 Sur 0 -- -- 58
2018-04-25 09:00:00 17 3 Norte 22 Sur 0 -- -- 57
2018-04-25 08:00:00 17.2 12 Noroeste 21 Noroeste 0 -- -- 47
2018-04-25 07:00:00 13.9 13 Noroeste 20 Sur 0 -- -- 63
2018-04-25 06:00:00 17.2 4 Noroeste 14 Noroeste 0 -- -- 47
2018-04-25 05:00:00 16.8 9 Noroeste 20 Noroeste 0 -- -- 48
2018-04-25 04:00:00 17.4 3 Oeste 7 Oeste 0 -- -- 50
2018-04-25 03:00:00 17.9 5 Sudoeste 13 Noroeste 0 -- -- 50
2018-04-25 02:00:00 19.2 3 Oeste 9 Norte 0 -- -- 45
2018-04-25 01:00:00 19.8 3 Norte 15 Nordeste 0 -- -- 44
2018-04-25 00:00:00 18.8 7 Norte 13 Noroeste 0 -- -- 48